createdAt,value
2023-02-08T00:01:28.628Z,100160.13
2023-02-08T00:03:55.371Z,100158.06
2023-02-08T00:06:22.084Z,100161.94
2023-02-08T00:08:48.784Z,100162.66
2023-02-08T00:11:15.444Z,100163.69
2023-02-08T00:13:43.017Z,100166.34
2023-02-08T00:16:09.933Z,100174.97
2023-02-08T00:18:38.653Z,100180.75
2023-02-08T00:21:09.255Z,100173.06
2023-02-08T00:23:35.942Z,100175.78
2023-02-08T00:26:02.658Z,100172.59
2023-02-08T00:28:30.357Z,100175.53
2023-02-08T00:30:57.197Z,100183.50
2023-02-08T00:33:23.880Z,100181.00
2023-02-08T00:35:50.529Z,100188.06
2023-02-08T00:38:18.213Z,100186.81
2023-02-08T00:40:44.876Z,100194.72
2023-02-08T00:43:11.784Z,100197.81
2023-02-08T00:45:38.560Z,100188.09
2023-02-08T00:48:06.201Z,100187.91
2023-02-08T00:50:32.871Z,100184.56
2023-02-08T00:52:59.947Z,100182.91
2023-02-08T00:55:26.638Z,100187.09
2023-02-08T00:57:54.313Z,100189.72
2023-02-08T01:00:20.943Z,100179.91
2023-02-08T01:02:47.635Z,100187.69
2023-02-08T01:05:14.342Z,100189.41
2023-02-08T01:07:56.072Z,100183.59
2023-02-08T01:10:22.793Z,100189.97
2023-02-08T01:12:49.458Z,100187.22
2023-02-08T01:15:16.100Z,100200.25
2023-02-08T01:17:53.105Z,100206.97
2023-02-08T01:20:19.843Z,100204.62
2023-02-08T01:22:46.516Z,100211.13
2023-02-08T01:25:13.353Z,100209.69
2023-02-08T01:27:41.006Z,100205.84
2023-02-08T01:30:07.941Z,100210.78
2023-02-08T01:32:34.628Z,100208.09
2023-02-08T01:35:01.296Z,100211.81
2023-02-08T01:37:30.977Z,100210.53
2023-02-08T01:39:57.674Z,100216.16
2023-02-08T01:42:24.328Z,100220.03
2023-02-08T01:45:30.088Z,100219.91
2023-02-08T01:48:04.804Z,100219.91
2023-02-08T01:50:33.053Z,100211.25
2023-02-08T01:52:59.760Z,100206.00
2023-02-08T01:55:27.748Z,100214.88
2023-02-08T01:57:54.991Z,100206.56
2023-02-08T02:00:22.556Z,100205.25
2023-02-08T02:02:49.778Z,100210.09
2023-02-08T02:05:19.725Z,100213.72
2023-02-08T02:07:47.480Z,100209.94
2023-02-08T02:10:15.726Z,100217.72
2023-02-08T02:12:42.551Z,100215.00
2023-02-08T02:15:09.826Z,100224.44
2023-02-08T02:17:51.834Z,100218.81
2023-02-08T02:20:29.326Z,100222.16
2023-02-08T02:23:34.718Z,100215.34
2023-02-08T02:26:27.321Z,100212.78
2023-02-08T02:28:54.997Z,100210.28
2023-02-08T02:31:27.584Z,100208.53
2023-02-08T02:34:13.079Z,100206.41
2023-02-08T02:36:45.725Z,100206.84
2023-02-08T02:39:15.830Z,100205.53
2023-02-08T02:42:06.437Z,100212.94
2023-02-08T02:44:33.068Z,100204.84
2023-02-08T02:47:08.172Z,100207.47
2023-02-08T02:49:42.747Z,100205.56
2023-02-08T02:52:13.056Z,100207.41
2023-02-08T02:54:58.270Z,100206.28
2023-02-08T02:57:28.345Z,100211.91
2023-02-08T02:59:55.038Z,100219.47
2023-02-08T03:02:21.773Z,100222.00
2023-02-08T03:04:49.473Z,100218.38
2023-02-08T03:07:22.880Z,100219.81
2023-02-08T03:09:49.528Z,100227.84
2023-02-08T03:12:19.372Z,100223.19
2023-02-08T03:14:52.900Z,100224.97
2023-02-08T03:17:25.239Z,100229.63
2023-02-08T03:20:01.137Z,100228.56
2023-02-08T03:22:32.704Z,100239.91
2023-02-08T03:25:03.458Z,100241.75
2023-02-08T03:27:40.908Z,100244.59
2023-02-08T03:30:10.615Z,100241.00
2023-02-08T03:32:47.503Z,100240.25
2023-02-08T03:35:15.904Z,100234.78
2023-02-08T03:37:49.240Z,100234.41
2023-02-08T03:40:23.378Z,100236.53
2023-02-08T03:42:50.349Z,100240.94
2023-02-08T03:45:18.709Z,100230.75
2023-02-08T03:47:51.716Z,100246.25
2023-02-08T03:50:18.514Z,100235.94
2023-02-08T03:52:46.110Z,100243.66
2023-02-08T03:55:14.290Z,100246.72
2023-02-08T03:57:48.270Z,100243.28
2023-02-08T04:00:15.348Z,100245.19
2023-02-08T04:02:50.195Z,100244.19
2023-02-08T04:05:16.917Z,100245.88
2023-02-08T04:07:46.762Z,100244.63
2023-02-08T04:10:13.410Z,100245.38
2023-02-08T04:12:40.026Z,100248.97
2023-02-08T04:15:06.926Z,100256.47
2023-02-08T04:17:34.576Z,100252.94
2023-02-08T04:20:01.237Z,100251.31
2023-02-08T04:22:27.926Z,100265.19
2023-02-08T04:24:54.578Z,100256.53
2023-02-08T04:27:21.236Z,100249.69
2023-02-08T04:29:47.948Z,100253.69
2023-02-08T04:32:14.656Z,100243.06
2023-02-08T04:34:41.325Z,100251.50
2023-02-08T04:37:15.146Z,100251.63
2023-02-08T04:39:41.799Z,100251.06
2023-02-08T04:42:08.645Z,100249.19
2023-02-08T04:44:35.335Z,100252.31
2023-02-08T04:47:08.065Z,100244.28
2023-02-08T04:49:34.781Z,100251.75
2023-02-08T04:52:01.410Z,100247.78
2023-02-08T04:54:28.266Z,100252.59
2023-02-08T04:56:54.949Z,100257.66
2023-02-08T04:59:21.645Z,100254.81
2023-02-08T05:01:48.516Z,100251.50
2023-02-08T05:04:15.192Z,100248.97
2023-02-08T05:06:41.884Z,100245.72
2023-02-08T05:09:17.718Z,100245.72
2023-02-08T05:11:44.374Z,100237.06
2023-02-08T05:14:11.099Z,100242.75
2023-02-08T05:16:37.773Z,100230.03
2023-02-08T05:19:10.716Z,100238.00
2023-02-08T05:21:37.367Z,100242.06
2023-02-08T05:24:04.025Z,100249.41
2023-02-08T05:26:30.709Z,100259.28
2023-02-08T05:28:57.396Z,100254.78
2023-02-08T05:31:24.722Z,100249.19
2023-02-08T05:33:51.874Z,100264.81
2023-02-08T05:36:19.045Z,100263.97
2023-02-08T05:38:45.908Z,100265.41
2023-02-08T05:41:12.620Z,100275.06
2023-02-08T05:43:39.319Z,100269.75
2023-02-08T05:46:05.997Z,100271.34
2023-02-08T05:48:32.749Z,100272.47
2023-02-08T05:50:59.715Z,100272.28
2023-02-08T05:53:26.361Z,100270.13
2023-02-08T05:55:53.278Z,100271.41
2023-02-08T05:58:21.935Z,100272.47
2023-02-08T06:00:48.590Z,100272.06
2023-02-08T06:03:15.319Z,100267.53
2023-02-08T06:05:42.090Z,100277.19
2023-02-08T06:08:13.910Z,100276.75
2023-02-08T06:10:40.889Z,100289.34
2023-02-08T06:13:07.623Z,100296.22
2023-02-08T06:15:34.278Z,100289.75
2023-02-08T06:18:09.319Z,100294.81
2023-02-08T06:20:36.075Z,100296.19
2023-02-08T06:23:02.920Z,100303.06
2023-02-08T06:25:29.572Z,100300.28
2023-02-08T06:27:57.514Z,100295.38
2023-02-08T06:30:24.365Z,100297.06
2023-02-08T06:32:51.109Z,100285.94
2023-02-08T06:35:17.855Z,100291.16
2023-02-08T06:37:48.654Z,100287.47
2023-02-08T06:40:15.355Z,100281.25
2023-02-08T06:42:43.199Z,100286.75
2023-02-08T06:45:12.049Z,100286.38
2023-02-08T06:47:41.187Z,100285.13
2023-02-08T06:50:08.089Z,100280.78
2023-02-08T06:52:34.872Z,100285.84
2023-02-08T06:55:01.560Z,100295.47
2023-02-08T06:57:29.222Z,100314.31
2023-02-08T06:59:55.877Z,100301.31
2023-02-08T07:02:22.733Z,100308.50
2023-02-08T07:04:49.484Z,100311.66
2023-02-08T07:10:26.596Z,100315.34
2023-02-08T07:12:53.318Z,100313.38
2023-02-08T07:15:19.957Z,100318.87
2023-02-08T07:17:46.725Z,100313.09
2023-02-08T07:20:13.397Z,100335.75
2023-02-08T07:22:40.252Z,100335.50
2023-02-08T07:25:07.497Z,100330.34
2023-02-08T07:27:34.182Z,100336.09
2023-02-08T07:30:00.837Z,100336.25
2023-02-08T07:32:27.538Z,100329.66
2023-02-08T07:34:56.830Z,100328.25
2023-02-08T07:37:23.756Z,100329.47
2023-02-08T07:39:50.392Z,100333.50
2023-02-08T07:42:17.066Z,100334.34
2023-02-08T07:44:43.751Z,100333.62
2023-02-08T07:47:10.970Z,100331.25
2023-02-08T07:49:37.684Z,100339.38
2023-02-08T07:52:04.636Z,100342.59
2023-02-08T07:54:31.342Z,100345.22
2023-02-08T07:56:58.316Z,100340.19
2023-02-08T07:59:25.067Z,100342.88
2023-02-08T08:01:51.778Z,100339.78
2023-02-08T08:04:20.030Z,100338.28
2023-02-08T08:06:47.117Z,100353.81
2023-02-08T08:09:15.548Z,100362.78
2023-02-08T08:11:42.282Z,100357.66
2023-02-08T08:14:10.264Z,100363.28
2023-02-08T08:16:37.030Z,100365.41
2023-02-08T08:19:03.740Z,100364.00
2023-02-08T08:21:30.420Z,100374.53
2023-02-08T08:23:57.156Z,100367.28
2023-02-08T08:26:23.845Z,100369.06
2023-02-08T08:28:50.600Z,100372.09
2023-02-08T08:31:18.677Z,100372.84
2023-02-08T08:33:45.838Z,100382.81
2023-02-08T08:36:12.742Z,100384.16
2023-02-08T08:38:39.528Z,100388.09
2023-02-08T08:41:12.826Z,100390.31
2023-02-08T08:43:39.545Z,100385.72
2023-02-08T08:46:06.964Z,100393.94
2023-02-08T08:48:34.513Z,100391.75
2023-02-08T08:51:01.417Z,100396.69
2023-02-08T08:53:28.105Z,100401.12
2023-02-08T08:55:54.770Z,100405.84
2023-02-08T08:58:21.464Z,100400.88
2023-02-08T09:00:48.153Z,100400.88
2023-02-08T09:03:14.923Z,100402.66
2023-02-08T09:05:41.701Z,100400.06
2023-02-08T09:08:08.428Z,100401.59
2023-02-08T09:10:35.544Z,100400.66
2023-02-08T09:13:02.317Z,100398.09
2023-02-08T09:15:29.112Z,100407.94
2023-02-08T09:17:55.826Z,100403.94
2023-02-08T09:20:22.527Z,100408.97
2023-02-08T09:22:49.187Z,100419.41
2023-02-08T09:25:18.114Z,100405.53
2023-02-08T09:27:44.794Z,100411.09
2023-02-08T09:30:11.614Z,100429.53
2023-02-08T09:32:40.016Z,100421.97
2023-02-08T09:35:07.391Z,100423.50
2023-02-08T09:37:34.140Z,100426.41
2023-02-08T09:40:01.844Z,100422.09
2023-02-08T09:42:44.110Z,100432.72
2023-02-08T09:45:20.005Z,100432.78
2023-02-08T09:47:55.433Z,100425.44
2023-02-08T09:50:32.796Z,100435.62
2023-02-08T09:53:04.631Z,100431.69
2023-02-08T09:55:42.314Z,100429.38
2023-02-08T09:58:27.701Z,100426.03
2023-02-08T10:00:55.201Z,100421.81
2023-02-08T10:03:30.687Z,100427.25
2023-02-08T10:05:57.402Z,100423.94
2023-02-08T10:08:34.530Z,100427.97
2023-02-08T10:11:07.413Z,100424.59
2023-02-08T10:13:43.443Z,100432.47
2023-02-08T10:16:16.531Z,100417.53
2023-02-08T10:18:47.277Z,100411.34
2023-02-08T10:21:33.353Z,100419.13
2023-02-08T10:24:06.238Z,100416.78
2023-02-08T10:26:42.110Z,100411.34
2023-02-08T10:29:27.448Z,100412.69
2023-02-08T10:32:00.062Z,100405.66
2023-02-08T10:34:39.086Z,100410.97
2023-02-08T10:37:13.356Z,100420.59
2023-02-08T10:39:40.260Z,100423.19
2023-02-08T10:42:11.367Z,100424.78
2023-02-08T10:44:51.163Z,100420.00
2023-02-08T10:47:32.967Z,100408.03
2023-02-08T10:50:09.511Z,100415.97
2023-02-08T10:52:36.223Z,100407.59
2023-02-08T10:55:03.184Z,100414.16
2023-02-08T10:57:31.337Z,100416.84
2023-02-08T11:00:09.783Z,100410.00
2023-02-08T11:02:39.985Z,100411.03
2023-02-08T11:05:08.273Z,100410.13
2023-02-08T11:07:36.612Z,100414.78
2023-02-08T11:10:19.102Z,100402.87
2023-02-08T11:13:10.115Z,100397.16
2023-02-08T11:21:42.458Z,100397.94
2023-02-08T11:24:15.192Z,100386.72
2023-02-08T11:39:09.913Z,100384.81
2023-02-08T11:54:23.991Z,100385.50
2023-02-08T11:57:12.837Z,100385.72
2023-02-08T12:06:11.653Z,100369.75
2023-02-08T12:08:38.397Z,100376.06
2023-02-08T12:11:09.943Z,100370.09
2023-02-08T12:13:55.718Z,100369.06
2023-02-08T12:16:26.551Z,100362.09
2023-02-08T12:19:06.562Z,100365.72
2023-02-08T12:21:50.937Z,100362.56
2023-02-08T12:31:18.125Z,100360.00
2023-02-08T12:43:47.055Z,100363.84
2023-02-08T12:46:14.280Z,100357.62
2023-02-08T12:49:00.200Z,100366.94
2023-02-08T12:51:26.903Z,100362.69
2023-02-08T12:54:00.576Z,100366.34
2023-02-08T12:56:28.370Z,100361.78
2023-02-08T12:59:01.952Z,100354.88
2023-02-08T13:01:36.619Z,100359.66
2023-02-08T13:04:17.362Z,100363.03
2023-02-08T13:06:45.550Z,100350.94
2023-02-08T13:09:19.461Z,100347.91
2023-02-08T13:11:49.008Z,100354.91
2023-02-08T13:14:35.074Z,100360.59
2023-02-08T13:17:05.705Z,100353.53
2023-02-08T13:19:59.643Z,100352.28
2023-02-08T13:22:27.079Z,100355.69
2023-02-08T13:25:06.234Z,100360.50
2023-02-08T13:27:37.737Z,100356.03
2023-02-08T13:30:04.599Z,100356.19
2023-02-08T13:32:31.649Z,100354.31
2023-02-08T13:34:59.937Z,100363.66
2023-02-08T13:37:30.253Z,100354.94
2023-02-08T13:40:06.034Z,100361.34
2023-02-08T13:42:40.244Z,100354.12
2023-02-08T13:45:07.164Z,100355.13
2023-02-08T13:47:44.088Z,100352.94
2023-02-08T13:50:29.496Z,100348.72
2023-02-08T13:52:56.237Z,100352.87
2023-02-08T13:55:29.036Z,100350.56
2023-02-08T13:57:56.724Z,100358.09
2023-02-08T14:00:24.903Z,100355.41
2023-02-08T14:02:58.811Z,100361.53
2023-02-08T14:05:34.696Z,100355.84
2023-02-08T14:08:01.890Z,100361.53
2023-02-08T14:10:32.167Z,100362.34
2023-02-08T14:13:04.228Z,100357.59
2023-02-08T14:15:31.869Z,100352.37
2023-02-08T14:17:59.936Z,100352.41
2023-02-08T14:20:27.278Z,100349.94
2023-02-08T14:22:56.583Z,100347.06
2023-02-08T14:25:24.722Z,100351.47
2023-02-08T14:27:52.915Z,100339.41
2023-02-08T14:30:19.649Z,100348.06
2023-02-08T14:32:50.895Z,100349.28
2023-02-08T14:35:20.908Z,100344.38
2023-02-08T14:37:48.818Z,100348.19
2023-02-08T14:40:25.114Z,100346.66
2023-02-08T14:43:10.473Z,100344.81
2023-02-08T14:45:38.018Z,100349.09
2023-02-08T14:48:16.890Z,100337.78
2023-02-08T14:50:54.889Z,100335.50
2023-02-08T14:53:24.474Z,100329.72
2023-02-08T14:55:52.863Z,100337.81
2023-02-08T14:58:26.071Z,100336.22
2023-02-08T15:00:52.833Z,100332.81
2023-02-08T15:03:19.666Z,100339.13
2023-02-08T15:06:03.787Z,100341.87
2023-02-08T15:08:30.547Z,100335.75
2023-02-08T15:10:57.222Z,100333.53
2023-02-08T15:13:26.794Z,100330.06
2023-02-08T15:15:56.820Z,100332.22
2023-02-08T15:18:24.380Z,100330.22
2023-02-08T15:20:59.913Z,100337.59
2023-02-08T15:23:26.721Z,100342.47
2023-02-08T15:26:03.659Z,100341.50
2023-02-08T15:28:31.296Z,100340.56
2023-02-08T15:30:58.029Z,100347.91
2023-02-08T15:33:25.539Z,100336.88
2023-02-08T15:35:58.157Z,100341.69
2023-02-08T15:38:24.852Z,100347.03
2023-02-08T15:41:03.978Z,100346.06
2023-02-08T15:43:30.917Z,100341.00
2023-02-08T15:46:02.318Z,100346.16
2023-02-08T15:48:29.059Z,100350.13
2023-02-08T15:50:56.255Z,100347.00
2023-02-08T15:53:23.140Z,100350.91
2023-02-08T15:55:52.996Z,100348.38
2023-02-08T15:58:19.629Z,100350.97
2023-02-08T16:00:47.440Z,100349.59
2023-02-08T16:03:20.210Z,100350.56
2023-02-08T16:05:50.782Z,100349.84
2023-02-08T16:08:20.240Z,100353.81
2023-02-08T16:10:47.321Z,100352.19
2023-02-08T16:13:17.183Z,100358.28
2023-02-08T16:15:45.261Z,100365.72
2023-02-08T16:18:30.653Z,100363.03
2023-02-08T16:20:58.173Z,100362.87
2023-02-08T16:23:29.090Z,100373.53
2023-02-08T16:25:55.739Z,100381.97
2023-02-08T16:28:32.276Z,100383.63
2023-02-08T16:31:02.121Z,100390.13
2023-02-08T16:33:29.127Z,100377.94
2023-02-08T16:36:02.174Z,100382.72
2023-02-08T16:38:29.718Z,100384.47
2023-02-08T16:41:12.333Z,100390.22
2023-02-08T16:43:43.871Z,100386.22
2023-02-08T16:46:10.718Z,100387.38
2023-02-08T16:48:41.016Z,100391.44
2023-02-08T16:51:09.737Z,100392.25
2023-02-08T16:53:42.389Z,100393.97
2023-02-08T16:56:09.694Z,100385.28
2023-02-08T16:58:36.365Z,100392.63
2023-02-08T17:01:03.116Z,100396.22
2023-02-08T17:03:30.700Z,100393.94
2023-02-08T17:05:57.479Z,100399.09
2023-02-08T17:08:24.155Z,100398.12
2023-02-08T17:10:52.822Z,100388.09
2023-02-08T17:13:21.282Z,100389.03
2023-02-08T17:15:48.853Z,100392.84
2023-02-08T17:18:15.705Z,100391.19
2023-02-08T17:20:42.728Z,100390.16
2023-02-08T17:23:09.902Z,100392.91
2023-02-08T17:25:36.632Z,100392.34
2023-02-08T17:28:08.068Z,100390.56
2023-02-08T17:30:34.759Z,100402.56
2023-02-08T17:33:01.429Z,100395.03
2023-02-08T17:35:28.981Z,100399.63
2023-02-08T17:37:56.124Z,100399.87
2023-02-08T17:40:23.936Z,100398.16
2023-02-08T17:42:52.234Z,100400.03
2023-02-08T17:45:18.910Z,100402.94
2023-02-08T17:47:46.042Z,100408.00
2023-02-08T17:50:13.249Z,100406.87
2023-02-08T17:52:40.310Z,100410.19
2023-02-08T17:55:07.561Z,100417.31
2023-02-08T17:57:34.839Z,100417.91
2023-02-08T18:00:01.850Z,100407.34
2023-02-08T18:02:28.576Z,100411.59
2023-02-08T18:04:55.369Z,100407.66
2023-02-08T18:07:22.049Z,100403.81
2023-02-08T18:09:48.731Z,100413.78
2023-02-08T18:12:15.830Z,100409.66
2023-02-08T18:14:42.478Z,100409.03
2023-02-08T18:17:09.212Z,100407.69
2023-02-08T18:19:35.886Z,100409.41
2023-02-08T18:22:03.951Z,100414.06
2023-02-08T18:24:31.257Z,100413.09
2023-02-08T18:26:59.801Z,100417.69
2023-02-08T18:29:26.750Z,100418.75
2023-02-08T18:31:53.619Z,100423.25
2023-02-08T18:34:20.513Z,100427.84
2023-02-08T18:36:47.691Z,100424.59
2023-02-08T18:39:14.661Z,100434.63
2023-02-08T18:41:43.226Z,100433.91
2023-02-08T18:44:09.901Z,100428.13
2023-02-08T18:46:36.567Z,100429.78
2023-02-08T18:49:03.317Z,100421.78
2023-02-08T18:51:30.001Z,100426.22
2023-02-08T18:53:56.672Z,100417.78
2023-02-08T18:56:25.282Z,100426.75
2023-02-08T18:58:52.954Z,100421.09
2023-02-08T19:01:21.101Z,100411.00
2023-02-08T19:03:48.020Z,100416.69
2023-02-08T19:06:25.171Z,100412.47
2023-02-08T19:08:52.863Z,100413.28
2023-02-08T19:11:23.543Z,100416.87
2023-02-08T19:13:50.451Z,100419.53
2023-02-08T19:16:17.629Z,100420.47
2023-02-08T19:18:44.901Z,100414.09
2023-02-08T19:21:12.692Z,100418.19
2023-02-08T19:23:39.369Z,100418.66
2023-02-08T19:26:07.010Z,100419.28
2023-02-08T19:28:34.080Z,100418.12
2023-02-08T19:31:10.010Z,100421.16
2023-02-08T19:33:37.223Z,100420.06
2023-02-08T19:36:11.094Z,100414.84
2023-02-08T19:38:37.968Z,100421.19
2023-02-08T19:41:05.147Z,100424.50
2023-02-08T19:43:32.286Z,100427.25
2023-02-08T19:45:59.610Z,100422.38
2023-02-08T19:48:26.609Z,100423.13
2023-02-08T19:50:59.623Z,100426.53
2023-02-08T19:53:27.036Z,100422.09
2023-02-08T19:56:00.354Z,100432.22
2023-02-08T19:58:27.047Z,100423.63
2023-02-08T20:00:54.077Z,100432.88
2023-02-08T20:03:22.285Z,100429.63
2023-02-08T20:05:49.347Z,100429.00
2023-02-08T20:08:16.069Z,100431.38
2023-02-08T20:10:44.519Z,100427.56
2023-02-08T20:13:11.683Z,100437.19
2023-02-08T20:15:38.788Z,100433.75
2023-02-08T20:18:05.809Z,100437.56
2023-02-08T20:20:32.533Z,100441.34
2023-02-08T20:23:00.410Z,100437.44
2023-02-08T20:25:27.080Z,100440.03
2023-02-08T20:27:54.509Z,100431.97
2023-02-08T20:30:21.369Z,100430.44
2023-02-08T20:32:48.204Z,100427.63
2023-02-08T20:35:15.179Z,100429.38
2023-02-08T20:37:42.010Z,100431.34
2023-02-08T20:40:09.410Z,100423.94
2023-02-08T20:42:36.159Z,100427.28
2023-02-08T20:45:02.856Z,100430.75
2023-02-08T20:47:31.831Z,100424.47
2023-02-08T20:50:01.216Z,100428.56
2023-02-08T20:52:29.691Z,100436.50
2023-02-08T20:54:56.388Z,100437.59
2023-02-08T20:57:23.086Z,100438.25
2023-02-08T20:59:50.288Z,100440.56
2023-02-08T21:02:21.140Z,100438.97
2023-02-08T21:04:48.108Z,100441.41
2023-02-08T21:07:15.334Z,100439.38
2023-02-08T21:09:42.144Z,100444.44
2023-02-08T21:12:08.857Z,100441.00
2023-02-08T21:14:35.494Z,100443.72
2023-02-08T21:17:02.324Z,100438.81
2023-02-08T21:19:29.954Z,100437.06
2023-02-08T21:21:57.860Z,100440.41
2023-02-08T21:24:24.936Z,100437.53
2023-02-08T21:26:52.296Z,100445.91
2023-02-08T21:29:18.992Z,100439.56
2023-02-08T21:31:45.808Z,100443.28
2023-02-08T21:34:13.578Z,100433.69
2023-02-08T21:36:40.291Z,100432.84
2023-02-08T21:39:07.122Z,100434.94
2023-02-08T21:41:33.968Z,100426.94
2023-02-08T21:44:02.426Z,100428.22
2023-02-08T21:46:29.184Z,100432.38
2023-02-08T21:49:15.150Z,100429.38
2023-02-08T21:52:00.803Z,100426.34
2023-02-08T21:54:43.034Z,100423.56
2023-02-08T21:57:14.503Z,100427.94
2023-02-08T21:59:41.221Z,100423.87
2023-02-08T22:02:09.019Z,100424.94
2023-02-08T22:04:35.938Z,100428.06
2023-02-08T22:07:04.732Z,100420.47
2023-02-08T22:09:31.497Z,100425.66
2023-02-08T22:11:58.982Z,100423.34
2023-02-08T22:14:25.881Z,100428.19
2023-02-08T22:16:52.537Z,100426.44
2023-02-08T22:19:19.269Z,100428.66
2023-02-08T22:21:45.966Z,100432.72
2023-02-08T22:24:12.708Z,100431.84
2023-02-08T22:26:39.418Z,100434.72
2023-02-08T22:29:06.077Z,100432.38
2023-02-08T22:31:32.956Z,100434.25
2023-02-08T22:33:59.972Z,100425.69
2023-02-08T22:36:26.684Z,100430.22
2023-02-08T22:38:53.360Z,100432.25
2023-02-08T22:41:20.071Z,100435.44
2023-02-08T22:43:46.856Z,100439.69
2023-02-08T22:46:13.580Z,100431.66
2023-02-08T22:48:40.558Z,100426.00
2023-02-08T22:51:08.424Z,100428.94
2023-02-08T22:53:35.164Z,100425.75
2023-02-08T22:56:01.856Z,100417.19
2023-02-08T22:58:28.608Z,100419.47
2023-02-08T23:00:55.310Z,100417.66
2023-02-08T23:03:22.121Z,100411.84
2023-02-08T23:05:49.386Z,100415.06
2023-02-08T23:08:16.655Z,100412.69
2023-02-08T23:10:43.676Z,100409.59
2023-02-08T23:13:10.576Z,100420.37
2023-02-08T23:15:38.157Z,100414.66
2023-02-08T23:18:05.260Z,100417.59
2023-02-08T23:20:32.243Z,100410.44
2023-02-08T23:22:58.974Z,100416.25
2023-02-08T23:25:25.636Z,100414.28
2023-02-08T23:27:52.389Z,100409.53
2023-02-08T23:30:19.099Z,100408.91
2023-02-08T23:32:45.746Z,100404.94
2023-02-08T23:35:12.428Z,100394.00
2023-02-08T23:37:39.276Z,100393.78
2023-02-08T23:40:06.187Z,100397.59
2023-02-08T23:42:33.024Z,100398.81
2023-02-08T23:45:00.029Z,100398.50
2023-02-08T23:47:27.584Z,100398.84
2023-02-08T23:49:54.261Z,100397.53
2023-02-08T23:52:20.922Z,100398.03
2023-02-08T23:54:47.649Z,100391.12
2023-02-08T23:57:14.389Z,100394.94
2023-02-08T23:59:41.261Z,100395.03
